Airfield :
LOGIN :

Register | Disclaimer

   EN    FR    IT 

 










Legend :    VFR   Marginal VFR   IFR   Intensive IFR   Very Intensive IFR
Visi :
Ceiling :
>= 8 km
>= 3000ft
5 to 8 km
1000 to 3000 ft
1500m to 5 km
500 to 1000 ft
800 to 1500m
200 to 500 ft
< 800m
< 200 ft
Symbols :   Thunderstorms  Fog  Heavy snow  Heavy precipitations  Wind > 20 kt
SIGMETs :     Misc.  Thunderstorms  Icing  Turbulence  Mountain Waves  Volcanic Ashes






- Airport Elevation : 367 ft


EGYE - RAF Barkston Heath

CURRENT METAR :
  • 220920Z AUTO 28010KT //// OVC016/// 16/11 Q1011

EXPIRED METARs :
  • 220850Z AUTO 28012KT //// BKN015/// 16/12 Q1011
  • 220820Z AUTO 27013KT //// BKN015/// SCT031/// 17/13 Q1011
  • 220750Z AUTO 25012KT //// SCT014/// 17/13 Q1011
  • 220720Z AUTO 26012KT //// BKN012/// 16/13 Q1011
  • 220650Z AUTO 26012KT //// FEW012/// 16/12 Q1010
  • 220620Z AUTO 25008KT //// SCT012/// BKN077/// 14/12 Q1010
  • 220550Z AUTO 24010KT //// OVC059/// 14/12 Q1010
  • 220520Z AUTO 24010KT //// FEW051/// OVC063/// 14/12 Q1010

Expired Forecast.



MET'MAP, your aeronautical weather chart ! - Copyright ORBIFLY December 2007 - Disclaimer

ORBIFLY MET'MAP TEAM :

Programming & Development : Alexandra Zaïnal
Original concept : Baudouin d'Aumeries
Technical & hardware support : Manuel Goepfert
Assistance : Marc-Olivier Méhu




SOURCES & CREDITS :

   NOAA